Latest Weather Observations for Cape Moreton

IDQ60801

Issued at 8:02 pm EST Tuesday 27 January 2015 (issued every 30 minutes, with the page automatically refreshed every 10 minutes)

About weather observations | Map of weather stations | Latest weather observations for QLD | Other Formats
Station Details ID: 040043 Name: CAPE MORETON LIGHTHOUSE Lat: -27.03 Lon: 153.47 Height: 99.9 m
Data from the previous 72 hours. | See also: Recent months at Cape Moreton
Date/Time
EST
Temp
°C
App
Temp
°C
Dew
Point
Rel
Hum
%
Delta-T
°C
Wind Press
QNH
hPa
Press
MSL
hPa
Rain
since 9 am
mm
Dir
 
Spd
km/h
Gust
km/h
Spd
kts
Gust
kts
27/08:00pm 24.8 21.5 20.1 75 3.1 ESE 37 44 20 24 1006.4 1005.9 0.0
27/07:30pm 24.8 21.0 19.8 74 3.2 ESE 39 44 21 24 1006.2 1005.6 0.0
27/07:00pm 24.8 20.5 19.6 73 3.4 ESE 41 46 22 25 1006.1 1005.5 0.0
27/06:30pm 25.0 20.9 20.0 74 3.3 ESE 41 46 22 25 1005.7 1005.1 0.0
27/06:00pm 25.2 21.8 20.7 76 3.0 ESE 39 48 21 26 1005.5 1004.9 0.0
27/05:30pm 25.3 21.8 20.5 75 3.1 ESE 39 44 21 24 1005.0 1004.4 0.0
27/05:00pm 25.4 22.1 20.9 76 3.0 ESE 39 46 21 25 1004.8 1004.2 0.0
27/04:30pm 25.9 22.9 21.3 76 3.1 ESE 39 48 21 26 1004.5 1003.9 0.0
27/04:00pm 26.0 22.2 21.7 77 2.9 ESE 44 52 24 28 1004.5 1003.9 0.0
27/03:30pm 26.9 23.6 22.3 76 3.1 ESE 43 48 23 26 1005.0 1004.4 0.0
27/03:00pm 26.9 24.2 21.9 74 3.4 ESE 39 44 21 24 1005.4 1004.8 0.0
27/02:30pm 27.7 26.4 22.4 73 3.6 ESE 33 39 18 21 1005.9 1005.3 0.0
27/02:00pm 27.3 25.3 21.8 72 3.7 ESE 35 41 19 22 1006.1 1005.5 0.0
27/01:30pm 27.7 25.6 21.7 70 4.0 SE 35 39 19 21 1006.4 1005.9 0.0
27/01:00pm 27.9 25.9 21.9 70 4.1 ESE 35 41 19 22 1006.7 1006.2 0.0
27/12:30pm 27.8 26.1 22.5 73 3.6 ESE 35 41 19 22 1006.9 1006.4 0.0
27/12:00pm 28.0 26.6 22.0 70 4.1 ESE 32 39 17 21 1007.3 1006.8 0.0
27/11:30am 28.3 27.1 22.3 70 4.1 ESE 32 35 17 19 1007.8 1007.3 0.0
27/11:00am 28.1 26.7 21.9 69 4.2 SE 32 37 17 20 1008.0 1007.5 0.0
27/10:30am 28.2 27.1 22.4 71 3.9 SE 32 35 17 19 1008.2 1007.7 0.0
27/10:00am 28.2 26.8 22.0 69 4.2 SE 32 37 17 20 1008.2 1007.7 0.0
27/09:30am 28.0 26.4 21.8 69 4.2 SE 33 39 18 21 1008.0 1007.5 0.0
27/09:00am 27.5 25.9 21.8 71 3.8 SE 33 39 18 21 1007.8 1007.3 0.0
27/08:30am 27.5 26.3 22.2 73 3.6 SE 32 37 17 20 1007.7 1007.2 0.0
27/08:00am 27.5 26.3 22.2 73 3.6 ESE 32 35 17 19 1007.6 1007.1 0.0
27/07:30am 27.0 25.5 21.7 73 3.6 ESE 32 37 17 20 1007.5 1007.0 0.0
27/07:00am 26.4 24.8 21.8 76 3.1 ESE 33 37 18 20 1007.3 1006.8 0.0
27/06:30am 25.7 24.1 21.8 79 2.6 ESE 33 37 18 20 1007.5 1007.0 0.0
27/06:00am 25.1 24.2 22.2 84 2.0 ESE 30 35 16 19 1007.2 1006.7 0.0
27/05:30am 24.9 24.1 21.6 82 2.2 ESE 28 33 15 18 1007.2 1006.7 0.0
27/05:00am 24.8 23.7 21.7 83 2.1 ESE 30 33 16 18 1007.1 1006.6 0.0
27/04:30am 24.9 23.1 21.6 82 2.2 ESE 33 39 18 21 1006.5 1006.0 0.0
27/04:00am 24.9 22.2 22.0 84 1.9 ESE 39 44 21 24 1006.1 1005.5 0.0
27/03:30am 25.0 22.9 22.3 85 1.8 ESE 37 43 20 23 1005.8 1005.2 0.0
27/03:00am 25.2 23.5 22.5 85 1.8 ESE 35 41 19 22 1005.9 1005.3 0.0
27/02:30am 25.2 24.1 22.5 85 1.8 ESE 32 37 17 20 1006.0 1005.4 0.0
27/02:00am 25.3 24.1 22.6 85 1.8 ESE 33 39 18 21 1006.0 1005.4 0.0
27/01:30am 25.3 25.0 22.6 85 1.8 ESE 28 32 15 17 1006.6 1006.1 0.0
27/01:00am 25.3 24.2 22.4 84 2.0 ESE 32 37 17 20 1006.7 1006.2 0.0
27/12:30am 25.5 23.9 22.6 84 2.0 ESE 35 41 19 22 1007.0 1006.5 0.0
27/12:00am 25.4 23.6 22.3 83 2.1 ESE 35 41 19 22 1007.4 1006.9 0.0
 
Date/Time
EST
Temp
°C
App
Temp
°C
Dew
Point
Rel
Hum
%
Delta-T
°C
Wind Press
QNH
hPa
Press
MSL
hPa
Rain
since 9 am
mm
Dir
 
Spd
km/h
Gust
km/h
Spd
kts
Gust
kts
26/11:30pm 25.5 24.2 22.4 83 2.1 ESE 33 39 18 21 1008.0 1007.5 0.0
26/11:00pm 25.5 23.4 22.4 83 2.1 ESE 37 43 20 23 1008.1 1007.6 0.0
26/10:30pm 25.5 23.1 22.6 84 2.0 ESE 39 44 21 24 1008.0 1007.5 0.0
26/10:00pm 25.7 23.2 23.0 85 1.8 ESE 41 46 22 25 1008.1 1007.6 0.0
26/09:30pm 25.9 23.9 23.2 85 1.8 ESE 39 44 21 24 1008.3 1007.8 0.0
26/09:00pm 25.8 23.1 23.3 86 1.7 SE 43 50 23 27 1007.9 1007.4 0.0
26/08:30pm 25.9 23.2 23.4 86 1.7 SE 43 48 23 26 1008.0 1007.5 0.0
26/08:00pm 25.9 24.3 23.9 89 1.4 SE 39 44 21 24 1008.4 1007.9 0.0
26/07:30pm 25.9 23.8 24.3 91 1.1 SE 43 50 23 27 1007.9 1007.4 0.0
26/07:00pm 26.2 25.2 25.0 93 0.8 ESE 39 44 21 24 1007.4 1006.9 0.0
26/06:30pm 26.3 26.2 25.1 93 0.8 ESE 35 39 19 21 1007.0 1006.5 0.0
26/06:00pm 26.5 26.1 25.3 93 0.8 SE 37 43 20 23 1006.5 1006.0 0.0
26/05:30pm 26.6 26.7 25.4 93 0.8 SE 35 41 19 22 1006.1 1005.5 0.0
26/05:00pm 26.7 27.9 25.7 94 0.7 ESE 30 35 16 19 1006.0 1005.4 0.0
26/04:30pm 27.0 28.6 25.8 93 0.8 SE 28 32 15 17 1005.7 1005.1 0.0
26/04:00pm 27.0 28.3 25.9 94 0.8 SE 30 35 16 19 1005.4 1004.8 0.0
26/03:30pm 27.0 28.6 25.8 93 0.8 ESE 28 32 15 17 1005.3 1004.7 0.0
26/03:00pm 27.5 29.3 26.1 92 1.0 ESE 28 30 15 16 1005.7 1005.1 0.0
26/02:30pm 27.6 29.9 26.2 92 1.0 ESE 26 30 14 16 1005.9 1005.3 0.0
26/02:00pm 27.6 29.1 26.2 92 1.0 ESE 30 33 16 18 1005.5 1004.9 0.0
26/01:30pm 27.5 29.0 25.5 89 1.4 SE 28 33 15 18 1005.7 1005.1 0.0
26/01:00pm 28.6 30.0 26.0 86 1.9 SE 30 33 16 18 1006.3 1005.8 0.0
26/12:30pm 28.5 30.0 26.1 87 1.7 SE 30 35 16 19 1006.5 1006.0 0.0
26/12:00pm 28.4 30.3 26.2 88 1.6 SE 28 32 15 17 1006.8 1006.3 0.0
26/11:30am 28.4 30.6 26.0 87 1.7 SE 26 32 14 17 1007.1 1006.6 0.0
26/11:00am 28.9 32.1 26.5 87 1.7 SE 22 26 12 14 1007.5 1007.0 0.0
26/10:30am 28.8 32.4 26.4 87 1.7 SE 20 22 11 12 1007.5 1007.0 0.0
26/10:00am 28.6 32.7 26.4 88 1.6 SE 17 20 9 11 1007.5 1007.0 0.0
26/09:30am 28.6 33.1 27.0 91 1.2 ESE 17 20 9 11 1007.6 1007.1 0.0
26/09:00am 28.1 33.5 27.2 95 0.6 ESE 13 15 7 8 1007.7 1007.2 0.0
26/08:30am 28.1 34.2 27.6 97 0.4 SE 11 13 6 7 1007.6 1007.1 0.0
26/08:00am 27.9 34.1 27.7 99 0.1 ESE 11 13 6 7 1007.4 1006.9 0.0
26/07:30am 27.7 34.3 27.7 100 0.0 ESE 9 11 5 6 1007.4 1006.9 0.0
26/07:00am 27.3 33.2 27.3 100 0.0 ESE 11 13 6 7 1007.1 1006.6 0.0
26/06:30am 27.3 33.2 27.3 100 0.0 E 11 13 6 7 1006.7 1006.2 0.0
26/06:00am 26.5 31.1 26.5 100 0.0 ESE 15 17 8 9 1006.4 1005.9 0.0
26/05:30am 25.9 30.1 25.9 100 0.0 SE 15 17 8 9 1006.2 1005.6 0.0
26/05:00am 26.0 31.0 26.0 100 0.0 ESE 11 13 6 7 1005.8 1005.2 0.0
26/04:30am 26.1 33.3 26.1 100 0.0 CALM 0 0 0 0 1005.5 1004.9 0.0
26/04:00am 26.0 32.0 26.0 100 0.0 N 6 7 3 4 1005.4 1004.8 0.0
26/03:30am 26.0 32.0 26.0 100 0.0 NNW 6 9 3 5 1005.2 1004.6 0.0
26/03:00am 26.2 32.7 26.2 100 0.0 N 4 7 2 4 1005.4 1004.8 0.0
26/02:30am 26.3 31.9 26.3 100 0.0 N 9 11 5 6 1005.5 1004.9 0.0
26/02:00am 26.3 31.5 26.3 100 0.0 N 11 13 6 7 1005.3 1004.7 0.0
26/01:30am 26.3 31.5 26.3 100 0.0 NNW 11 13 6 7 1005.8 1005.2 0.0
26/01:00am 26.4 31.3 26.4 100 0.0 NNW 13 17 7 9 1006.2 1005.6 0.0
26/12:30am 26.4 32.4 26.4 100 0.0 N 7 13 4 7 1006.8 1006.3 0.0
26/12:00am 26.4 30.9 26.4 100 0.0 NNE 15 22 8 12 1006.7 1006.2 0.0
 
Date/Time
EST
Temp
°C
App
Temp
°C
Dew
Point
Rel
Hum
%
Delta-T
°C
Wind Press
QNH
hPa
Press
MSL
hPa
Rain
since 9 am
mm
Dir
 
Spd
km/h
Gust
km/h
Spd
kts
Gust
kts
25/11:30pm 26.2 32.7 26.2 100 0.0 NNW 4 11 2 6 1007.0 1006.5 0.0
25/11:00pm 26.3 31.5 26.3 100 0.0 N 11 15 6 8 1006.6 1006.1 0.0
25/10:30pm 26.3 30.4 26.3 100 0.0 NNW 17 20 9 11 1006.5 1006.0 0.0
25/10:00pm 26.4 30.0 26.2 99 0.1 NNW 19 20 10 11 1006.2 1005.6 0.0
25/09:30pm 26.4 30.0 26.2 99 0.1 N 19 20 10 11 1006.2 1005.6 0.0
25/09:00pm 26.4 30.4 26.2 99 0.1 N 17 20 9 11 1006.3 1005.8 0.0
25/08:30pm 26.4 30.4 26.2 99 0.1 N 17 19 9 10 1006.1 1005.5 0.0
25/08:00pm 26.4 30.4 26.2 99 0.1 N 17 20 9 11 1006.1 1005.5 0.0
25/07:30pm 26.4 30.0 26.1 98 0.2 N 19 22 10 12 1005.8 1005.2 0.0
25/07:00pm 26.4 29.3 25.9 97 0.4 N 22 26 12 14 1005.3 1004.7 0.0
25/06:30pm 26.4 29.6 25.5 95 0.6 N 19 22 10 12 1004.6 1004.0 0.0
25/06:00pm 26.6 29.1 25.4 93 0.8 NNE 22 28 12 15 1004.1 1003.5 0.0
25/05:30pm 26.8 29.9 25.4 92 1.0 NNE 19 24 10 13 1004.1 1003.5 0.0
25/05:00pm 27.1 30.1 25.3 90 1.3 NNE 19 22 10 12 1003.5 1002.9 0.0
25/04:30pm 27.3 30.2 25.1 88 1.5 NNE 19 24 10 13 1003.5 1002.9 0.0
25/04:00pm 27.0 29.7 25.0 89 1.4 NNE 20 24 11 13 1003.7 1003.1 0.0
25/03:30pm 27.7 30.4 24.7 84 2.1 NNE 19 24 10 13 1004.1 1003.5 0.0
25/03:00pm 28.1 30.8 24.7 82 2.4 NNE 19 24 10 13 1004.0 1003.4 0.0
25/02:30pm 28.1 30.6 24.5 81 2.5 NNE 19 24 10 13 1004.3 1003.7 0.0
25/02:00pm 27.9 30.1 24.3 81 2.5 NNE 20 24 11 13 1004.5 1003.9 0.0
25/01:30pm 28.0 30.2 24.2 80 2.6 NNE 20 28 11 15 1004.6 1004.0 0.0
25/01:00pm 28.4 30.8 24.6 80 2.7 NNE 20 24 11 13 1004.8 1004.2 0.0
25/12:30pm 27.9 30.2 24.1 80 2.6 N 19 22 10 12 1005.1 1004.5 0.0
25/12:00pm 28.2 31.4 24.4 80 2.7 N 15 22 8 12 1005.4 1004.8 0.0
25/11:30am 27.9 30.6 24.1 80 2.6 NNW 17 24 9 13 1005.7 1005.1 0.0
25/11:00am 27.4 29.8 23.6 80 2.6 NNW 17 22 9 12 1005.9 1005.3 0.0
25/10:30am 26.6 28.0 22.9 80 2.5 NW 20 24 11 13 1006.3 1005.8 0.0
25/10:00am 26.8 28.3 23.1 80 2.5 NW 20 26 11 14 1006.5 1006.0 0.0
25/09:30am 26.5 27.8 22.3 78 2.8 NW 19 24 10 13 1006.7 1006.2 0.0
25/09:00am 26.5 27.5 22.1 77 3.0 NW 20 30 11 16 1006.8 1006.3 0.2
25/08:30am 26.4 27.8 22.5 79 2.6 NW 19 26 10 14 1007.2 1006.7 0.2
25/08:00am 25.7 26.3 21.4 77 2.9 WNW 20 28 11 15 1007.3 1006.8 0.2
25/07:30am 25.6 27.2 22.1 81 2.4 NW 17 22 9 12 1007.3 1006.8 0.2
25/07:00am 25.1 26.1 21.8 82 2.2 NW 19 24 10 13 1007.2 1006.7 0.2
25/06:30am 24.8 26.4 22.1 85 1.8 NW 17 22 9 12 1007.1 1006.6 0.2
25/06:00am 24.3 26.1 22.6 90 1.1 NW 17 22 9 12 1006.8 1006.3 0.2
25/05:30am 23.8 25.6 22.6 93 0.8 NW 17 20 9 11 1006.6 1006.1 0.2
25/05:00am 23.9 25.5 22.9 94 0.7 NW 19 26 10 14 1006.4 1005.9 0.2
25/04:30am 23.9 25.9 23.0 95 0.6 NW 17 24 9 13 1006.4 1005.9 0.2
25/04:00am 24.0 26.5 23.1 95 0.6 NW 15 19 8 10 1006.1 1005.5 0.2
25/03:30am 24.0 26.4 23.0 94 0.7 NW 15 20 8 11 1006.2 1005.6 0.2
25/03:00am 24.1 26.1 22.9 93 0.8 NW 17 20 9 11 1006.3 1005.8 0.2
25/02:30am 24.1 26.1 22.9 93 0.8 NW 17 20 9 11 1006.3 1005.8 0.2
25/02:00am 23.9 25.8 22.7 93 0.8 NW 17 19 9 10 1006.3 1005.8 0.2
25/01:30am 23.7 26.2 22.5 93 0.8 NW 13 15 7 8 1006.3 1005.8 0.2
25/01:00am 23.9 26.7 22.3 91 1.1 WNW 11 13 6 7 1006.4 1005.9 0.2
25/12:30am 23.6 25.7 21.7 89 1.3 WNW 13 13 7 7 1006.7 1006.2 0.2
25/12:00am 23.8 26.7 21.7 88 1.4 WNW 9 9 5 5 1006.8 1006.3 0.2
 
Date/Time
EST
Temp
°C
App
Temp
°C
Dew
Point
Rel
Hum
%
Delta-T
°C
Wind Press
QNH
hPa
Press
MSL
hPa
Rain
since 9 am
mm
Dir
 
Spd
km/h
Gust
km/h
Spd
kts
Gust
kts
24/11:30pm 23.9 27.2 21.8 88 1.4 WNW 7 7 4 4 1007.2 1006.7 0.2
24/11:00pm 24.0 28.7 21.9 88 1.4 CALM 0 0 0 0 1007.2 1006.7 0.2
24/10:30pm 24.0 27.5 21.9 88 1.4 ESE 6 7 3 4 1007.3 1006.8 0.2
24/10:00pm 24.1 28.6 22.2 89 1.3 E 2 6 1 3 1007.4 1006.9 0.2
24/09:30pm 24.0 27.1 22.1 89 1.3 ESE 9 11 5 6 1006.9 1006.4 0.2
24/09:00pm 24.1 26.8 22.2 89 1.3 ESE 11 13 6 7 1006.7 1006.2 0.2
24/08:30pm 24.3 26.4 22.4 89 1.3 ESE 15 19 8 10 1006.4 1005.9 0.2

Other Formats:

Comma delimited format used in spreadsheet applications
http://www.bom.gov.au/fwo/IDQ60801/IDQ60801.94594.axf

JavaScript Object Notation format (JSON) in row-major order
http://www.bom.gov.au/fwo/IDQ60801/IDQ60801.94594.json